Time;durP1;ratioP1;P1;durP2;ratioP2;P2;SDS_P1;SDS_P2;PMS_P1;PMS_P2;Temp;Humidity;BMP_temperature;BMP_pressure;BME280_temperature;BME280_humidity;BME280_pressure;Samples;Min_cycle;Max_cycle;Signal;HPM_P1;HPM_P2
2023/04/28 00:01:05;;;;;;;7.53;4.45;;;;;;;;;;4900341;29;20005;-83
2023/04/28 00:03:30;;;;;;;7.55;4.50;;;;;;;;;;4880328;29;20028;-80
2023/04/28 00:05:56;;;;;;;5.15;4.65;;;;;;;;;;4891879;29;20617;-81
2023/04/28 00:08:24;;;;;;;5.90;4.40;;;;;;;;;;4904116;29;20059;-80
2023/04/28 00:10:50;;;;;;;5.70;5.20;;;;;;;;;;4904369;29;20812;-81
2023/04/28 00:13:15;;;;;;;7.63;5.20;;;;;;;;;;4917072;29;20053;-82
2023/04/28 00:15:40;;;;;;;7.78;5.85;;;;;;;;;;4902206;29;20009;-83
2023/04/28 00:18:05;;;;;;;6.78;6.07;;;;;;;;;;4902915;29;20109;-83
2023/04/28 00:20:31;;;;;;;8.13;6.18;;;;;;;;;;4919196;29;20037;-82
2023/04/28 00:22:56;;;;;;;8.23;6.25;;;;;;;;;;4903097;29;20048;-82
2023/04/28 00:25:22;;;;;;;7.75;7.05;;;;;;;;;;4896116;29;20057;-80
2023/04/28 00:27:47;;;;;;;6.35;5.72;;;;;;;;;;4898923;29;20071;-80
2023/04/28 00:30:12;;;;;;;7.47;5.63;;;;;;;;;;4888112;29;20040;-80
2023/04/28 00:32:37;;;;;;;8.77;5.95;;;;;;;;;;4897280;29;20036;-80
2023/04/28 00:35:03;;;;;;;9.40;5.22;;;;;;;;;;4883913;29;20085;-80
2023/04/28 00:37:28;;;;;;;6.72;6.13;;;;;;;;;;4882732;29;20602;-79
2023/04/28 00:39:54;;;;;;;6.22;5.63;;;;;;;;;;4893364;29;20550;-79
2023/04/28 00:42:20;;;;;;;7.03;5.82;;;;;;;;;;4879032;29;20092;-81
2023/04/28 00:44:45;;;;;;;5.38;4.88;;;;;;;;;;4884633;29;20513;-79
2023/04/28 00:47:10;;;;;;;6.82;5.25;;;;;;;;;;4879118;29;20061;-80
2023/04/28 00:49:36;;;;;;;6.72;6.05;;;;;;;;;;4875115;29;20185;-81
2023/04/28 00:52:03;;;;;;;7.50;5.20;;;;;;;;;;4878271;29;20029;-80
2023/04/28 00:54:29;;;;;;;6.18;5.15;;;;;;;;;;4878441;29;20021;-80
2023/04/28 00:56:54;;;;;;;5.03;4.53;;;;;;;;;;4909538;29;20120;-81
2023/04/28 00:59:20;;;;;;;6.70;4.70;;;;;;;;;;4883025;29;20029;-81
2023/04/28 01:01:45;;;;;;;6.25;5.10;;;;;;;;;;4888432;29;20028;-79
2023/04/28 01:04:10;;;;;;;6.22;5.43;;;;;;;;;;4877547;29;20064;-79
2023/04/28 01:06:36;;;;;;;7.40;5.43;;;;;;;;;;4869742;29;20056;-80
2023/04/28 01:09:02;;;;;;;7.95;4.93;;;;;;;;;;4856980;29;20035;-81
2023/04/28 01:11:27;;;;;;;5.93;5.43;;;;;;;;;;4893821;29;20036;-81
2023/04/28 01:13:52;;;;;;;7.90;5.35;;;;;;;;;;4907146;29;20035;-79
2023/04/28 01:16:18;;;;;;;12.52;5.50;;;;;;;;;;4877196;29;20080;-79
2023/04/28 01:18:45;;;;;;;5.40;4.90;;;;;;;;;;4860305;29;20406;-79
2023/04/28 01:21:11;;;;;;;6.57;4.63;;;;;;;;;;4852285;29;20025;-79
2023/04/28 01:23:37;;;;;;;6.72;5.28;;;;;;;;;;4887895;29;20553;-80
2023/04/28 01:26:02;;;;;;;7.32;5.00;;;;;;;;;;4882957;29;20488;-80
2023/04/28 01:28:27;;;;;;;4.65;4.20;;;;;;;;;;4900028;29;20131;-80
2023/04/28 01:30:54;;;;;;;7.43;4.90;;;;;;;;;;4879110;29;20068;-80
2023/04/28 01:33:19;;;;;;;7.60;5.22;;;;;;;;;;4863284;29;20029;-80
2023/04/28 01:35:45;;;;;;;6.28;5.72;;;;;;;;;;4893408;29;20036;-80
2023/04/28 01:38:10;;;;;;;8.75;5.60;;;;;;;;;;4899173;29;20023;-80
2023/04/28 01:40:35;;;;;;;9.30;5.90;;;;;;;;;;4872435;29;20039;-80
2023/04/28 01:43:00;;;;;;;6.38;5.05;;;;;;;;;;4893386;29;20018;-80
2023/04/28 01:45:26;;;;;;;5.47;4.90;;;;;;;;;;4873770;29;20049;-80
2023/04/28 01:47:51;;;;;;;6.20;5.20;;;;;;;;;;4885152;29;20028;-80
2023/04/28 01:50:16;;;;;;;6.32;5.72;;;;;;;;;;4888160;29;20048;-80
2023/04/28 01:52:41;;;;;;;7.65;5.28;;;;;;;;;;4883560;29;20096;-80
2023/04/28 01:55:07;;;;;;;10.18;5.82;;;;;;;;;;4887699;29;20490;-80
2023/04/28 01:57:34;;;;;;;6.53;5.90;;;;;;;;;;4885881;29;20032;-80
2023/04/28 01:59:59;;;;;;;6.20;5.53;;;;;;;;;;4886578;29;20456;-80
2023/04/28 02:02:25;;;;;;;8.18;5.85;;;;;;;;;;4866913;29;20033;-80
2023/04/28 02:10:00;;;;;;;10.43;6.32;;;;;;;;;;5373848;23;20064;-81
2023/04/28 02:12:25;;;;;;;14.15;6.63;;;;;;;;;;4936931;29;20036;-80
2023/04/28 02:14:51;;;;;;;6.97;4.93;;;;;;;;;;4913805;29;20020;-81
2023/04/28 02:17:16;;;;;;;7.10;5.85;;;;;;;;;;4940761;29;20020;-81
2023/04/28 02:19:42;;;;;;;8.18;6.20;;;;;;;;;;4939443;29;20040;-81
2023/04/28 02:22:07;;;;;;;11.02;6.90;;;;;;;;;;4940767;29;20016;-81
2023/04/28 02:24:36;;;;;;;8.40;6.28;;;;;;;;;;4943294;29;20028;-82
2023/04/28 02:27:02;;;;;;;7.53;5.72;;;;;;;;;;4943007;29;20038;-81
2023/04/28 02:29:29;;;;;;;10.00;5.72;;;;;;;;;;4926195;29;20059;-82
2023/04/28 02:31:54;;;;;;;5.95;5.38;;;;;;;;;;5115414;23;20076;-79
2023/04/28 02:34:20;;;;;;;6.60;5.78;;;;;;;;;;4911254;29;20032;-79
2023/04/28 02:36:47;;;;;;;6.82;5.72;;;;;;;;;;4913713;29;20020;-80
2023/04/28 02:39:12;;;;;;;6.82;6.10;;;;;;;;;;4920827;29;20041;-80
2023/04/28 02:41:37;;;;;;;9.07;6.18;;;;;;;;;;4904697;29;20115;-80
2023/04/28 02:44:03;;;;;;;6.97;5.60;;;;;;;;;;4920023;29;20025;-81
2023/04/28 02:46:28;;;;;;;7.50;5.85;;;;;;;;;;4923090;29;20025;-81
2023/04/28 02:48:54;;;;;;;6.72;6.07;;;;;;;;;;4922867;29;20016;-82
2023/04/28 02:51:19;;;;;;;6.68;5.13;;;;;;;;;;4920367;29;20044;-81
2023/04/28 02:56:20;;;;;;;8.43;5.80;;;;;;;;;;5050077;23;20139;-82
2023/04/28 02:58:45;;;;;;;6.57;5.63;;;;;;;;;;4939664;29;20012;-81
2023/04/28 03:01:10;;;;;;;9.30;5.90;;;;;;;;;;4922268;28;20040;-82
2023/04/28 03:03:36;;;;;;;7.20;5.97;;;;;;;;;;4936839;29;20088;-81
2023/04/28 03:06:01;;;;;;;7.72;6.10;;;;;;;;;;4937591;29;20086;-80
2023/04/28 03:08:27;;;;;;;7.93;5.55;;;;;;;;;;4927967;29;20024;-78
2023/04/28 03:10:52;;;;;;;6.40;5.80;;;;;;;;;;4896080;29;20051;-79
2023/04/28 03:13:17;;;;;;;6.45;5.85;;;;;;;;;;4912835;29;20047;-79
2023/04/28 03:15:42;;;;;;;7.13;6.13;;;;;;;;;;4907489;29;20513;-79
2023/04/28 03:18:08;;;;;;;10.35;6.75;;;;;;;;;;4890640;29;20016;-79
2023/04/28 03:20:33;;;;;;;14.88;10.70;;;;;;;;;;4908970;29;20028;-80
2023/04/28 03:22:58;;;;;;;26.58;17.85;;;;;;;;;;4895528;29;20020;-81
2023/04/28 03:25:23;;;;;;;11.55;7.70;;;;;;;;;;4918927;29;20016;-81
2023/04/28 03:27:49;;;;;;;11.60;5.50;;;;;;;;;;4917946;29;20027;-80
2023/04/28 03:30:14;;;;;;;5.90;5.38;;;;;;;;;;4911784;29;20047;-79
2023/04/28 03:32:40;;;;;;;9.63;5.25;;;;;;;;;;4910980;29;20036;-79
2023/04/28 03:35:05;;;;;;;19.83;14.85;;;;;;;;;;4921127;29;20036;-79
2023/04/28 03:37:30;;;;;;;17.60;11.68;;;;;;;;;;4914872;29;20024;-79
2023/04/28 03:39:56;;;;;;;8.10;6.00;;;;;;;;;;4919539;29;20115;-79
2023/04/28 03:42:21;;;;;;;7.40;5.25;;;;;;;;;;4891978;29;20052;-79
2023/04/28 03:44:46;;;;;;;5.63;4.38;;;;;;;;;;4891504;29;20028;-81
2023/04/28 03:47:11;;;;;;;7.68;4.97;;;;;;;;;;4920444;29;20016;-81
2023/04/28 03:49:37;;;;;;;6.53;4.95;;;;;;;;;;4918046;29;20020;-82
2023/04/28 03:52:03;;;;;;;15.00;8.73;;;;;;;;;;4887207;29;20060;-80
2023/04/28 03:54:28;;;;;;;27.20;21.92;;;;;;;;;;4898393;29;20040;-81
2023/04/28 03:56:53;;;;;;;29.90;22.40;;;;;;;;;;4908354;29;20029;-81
2023/04/28 03:59:19;;;;;;;29.58;18.27;;;;;;;;;;4894781;29;20036;-81
2023/04/28 04:01:44;;;;;;;7.07;6.45;;;;;;;;;;4926040;29;20027;-82
2023/04/28 04:04:09;;;;;;;7.03;6.00;;;;;;;;;;4933161;29;20047;-81
2023/04/28 04:06:34;;;;;;;5.63;4.53;;;;;;;;;;4934432;29;20032;-82
2023/04/28 04:09:00;;;;;;;4.22;3.80;;;;;;;;;;4899438;29;20052;-81
2023/04/28 04:11:25;;;;;;;5.43;3.63;;;;;;;;;;4895863;29;20029;-82
2023/04/28 04:13:50;;;;;;;3.97;3.55;;;;;;;;;;4915922;29;20098;-81
2023/04/28 04:16:16;;;;;;;4.28;2.90;;;;;;;;;;4915307;29;20083;-81
2023/04/28 04:18:41;;;;;;;4.10;3.45;;;;;;;;;;4920808;29;20044;-82
2023/04/28 04:21:06;;;;;;;7.78;4.95;;;;;;;;;;4916568;29;20051;-81
2023/04/28 04:23:32;;;;;;;4.70;4.07;;;;;;;;;;4889649;29;20028;-81
2023/04/28 04:25:57;;;;;;;7.57;5.37;;;;;;;;;;4912969;29;20005;-81
2023/04/28 04:28:22;;;;;;;22.33;9.10;;;;;;;;;;4906962;29;20979;-80
2023/04/28 04:30:47;;;;;;;25.07;14.43;;;;;;;;;;4906774;29;20353;-80
2023/04/28 04:33:12;;;;;;;17.27;14.05;;;;;;;;;;4882190;29;20273;-80
2023/04/28 04:38:13;;;;;;;12.98;10.98;;;;;;;;;;5639504;23;20292;-82
2023/04/28 04:43:20;;;;;;;12.70;10.55;;;;;;;;;;5096498;23;20092;-88
2023/04/28 04:45:45;;;;;;;16.83;12.57;;;;;;;;;;4910549;29;20419;-88
2023/04/28 04:48:10;;;;;;;16.70;15.00;;;;;;;;;;4928444;29;20413;-85
2023/04/28 04:50:36;;;;;;;7.30;6.60;;;;;;;;;;4927403;29;20118;-86
2023/04/28 04:53:01;;;;;;;5.60;5.20;;;;;;;;;;4926865;29;20275;-82
2023/04/28 04:55:26;;;;;;;5.57;4.07;;;;;;;;;;4927231;29;20024;-83
2023/04/28 04:57:51;;;;;;;7.45;4.05;;;;;;;;;;4925780;29;20087;-82
2023/04/28 05:00:17;;;;;;;6.95;3.63;;;;;;;;;;4926048;29;20066;-84
2023/04/28 05:02:42;;;;;;;5.32;3.20;;;;;;;;;;4919471;29;20020;-85
2023/04/28 05:05:08;;;;;;;4.70;3.58;;;;;;;;;;4928671;29;20870;-89
2023/04/28 05:07:33;;;;;;;10.45;4.47;;;;;;;;;;4927550;29;20812;-79
2023/04/28 05:09:59;;;;;;;5.78;4.20;;;;;;;;;;4927053;29;20637;-78
2023/04/28 05:12:24;;;;;;;4.85;4.03;;;;;;;;;;4926533;29;20019;-83
2023/04/28 05:14:50;;;;;;;5.87;3.67;;;;;;;;;;4926034;29;20023;-84
2023/04/28 05:17:15;;;;;;;4.50;3.77;;;;;;;;;;4926479;29;20282;-84
2023/04/28 05:19:40;;;;;;;3.40;3.10;;;;;;;;;;4925654;29;20035;-83
2023/04/28 05:22:06;;;;;;;4.93;3.00;;;;;;;;;;4927356;29;20291;-85
2023/04/28 05:24:31;;;;;;;4.95;3.30;;;;;;;;;;4923970;29;20024;-86
2023/04/28 05:27:00;;;;;;;10.63;3.83;;;;;;;;;;4927139;29;20028;-84
2023/04/28 05:29:25;;;;;;;4.55;3.20;;;;;;;;;;4914280;29;20302;-84
2023/04/28 05:31:51;;;;;;;5.50;3.00;;;;;;;;;;4921746;29;20031;-85
2023/04/28 05:34:16;;;;;;;4.27;3.40;;;;;;;;;;4926073;29;20263;-84
2023/04/28 05:36:41;;;;;;;4.50;3.20;;;;;;;;;;4923446;29;20291;-85
2023/04/28 05:39:07;;;;;;;4.43;3.10;;;;;;;;;;4926509;29;20126;-85
2023/04/28 05:41:33;;;;;;;4.27;3.00;;;;;;;;;;4925514;29;20110;-87
2023/04/28 05:43:59;;;;;;;5.70;3.22;;;;;;;;;;4923873;29;20342;-87
2023/04/28 05:46:24;;;;;;;3.43;3.03;;;;;;;;;;4908952;29;20024;-85
2023/04/28 05:48:49;;;;;;;6.03;3.70;;;;;;;;;;4905909;29;20392;-86
2023/04/28 05:51:15;;;;;;;4.23;2.70;;;;;;;;;;4923416;29;20046;-85
2023/04/28 05:53:40;;;;;;;4.97;3.13;;;;;;;;;;4920438;29;20443;-87
2023/04/28 05:56:06;;;;;;;7.32;3.03;;;;;;;;;;4908834;29;20319;-84
2023/04/28 05:58:32;;;;;;;3.42;3.13;;;;;;;;;;4908256;29;20127;-86
2023/04/28 06:00:57;;;;;;;3.08;2.80;;;;;;;;;;4920026;29;20501;-85
2023/04/28 06:03:22;;;;;;;5.35;3.25;;;;;;;;;;4921197;29;20494;-83
2023/04/28 06:05:47;;;;;;;6.53;3.67;;;;;;;;;;4923535;29;20032;-84
2023/04/28 06:08:13;;;;;;;3.60;2.93;;;;;;;;;;4896624;29;20029;-85
2023/04/28 06:10:38;;;;;;;4.20;3.37;;;;;;;;;;4908918;29;20036;-85
2023/04/28 06:13:05;;;;;;;4.43;3.50;;;;;;;;;;4917096;29;20829;-84
2023/04/28 06:15:30;;;;;;;5.50;3.30;;;;;;;;;;4914036;29;20071;-86
2023/04/28 06:17:57;;;;;;;5.53;3.35;;;;;;;;;;4910337;29;20030;-87
2023/04/28 06:20:23;;;;;;;6.22;3.80;;;;;;;;;;4925236;29;20087;-84
2023/04/28 06:22:48;;;;;;;4.45;3.58;;;;;;;;;;4925432;29;20031;-85
2023/04/28 06:25:13;;;;;;;5.93;4.30;;;;;;;;;;4923524;29;20106;-83
2023/04/28 06:27:39;;;;;;;6.00;4.20;;;;;;;;;;4908441;29;20726;-84
2023/04/28 06:30:04;;;;;;;11.45;4.53;;;;;;;;;;4915686;29;20478;-83
2023/04/28 06:32:29;;;;;;;8.02;4.20;;;;;;;;;;4913547;29;20127;-84
2023/04/28 06:34:55;;;;;;;4.73;4.13;;;;;;;;;;4918871;29;20044;-85
2023/04/28 06:37:20;;;;;;;10.87;4.30;;;;;;;;;;4923314;29;20665;-82
2023/04/28 06:39:45;;;;;;;4.30;3.88;;;;;;;;;;4924724;29;20275;-82
2023/04/28 06:42:11;;;;;;;4.00;3.50;;;;;;;;;;4903325;29;20055;-82
2023/04/28 06:44:36;;;;;;;9.13;3.83;;;;;;;;;;4915350;29;20027;-88
2023/04/28 06:47:01;;;;;;;6.25;3.60;;;;;;;;;;4901025;29;21097;-83
2023/04/28 06:49:27;;;;;;;7.73;4.03;;;;;;;;;;4914905;29;20866;-82
2023/04/28 06:51:52;;;;;;;6.40;3.47;;;;;;;;;;4914076;29;20279;-81
2023/04/28 06:54:17;;;;;;;6.50;3.30;;;;;;;;;;4915309;29;20274;-81
2023/04/28 06:56:42;;;;;;;8.93;3.60;;;;;;;;;;4914435;29;20284;-82
2023/04/28 06:59:08;;;;;;;5.47;3.13;;;;;;;;;;4895344;29;20461;-81
2023/04/28 07:01:33;;;;;;;6.10;3.20;;;;;;;;;;4924277;29;20016;-82
2023/04/28 07:03:59;;;;;;;5.23;3.07;;;;;;;;;;4895855;29;20123;-81
2023/04/28 07:06:26;;;;;;;5.90;2.47;;;;;;;;;;4899813;29;20024;-83
2023/04/28 07:08:51;;;;;;;4.68;3.25;;;;;;;;;;4905235;29;20024;-83
2023/04/28 07:11:16;;;;;;;5.72;2.95;;;;;;;;;;4922044;29;20852;-82
2023/04/28 07:13:42;;;;;;;7.93;3.80;;;;;;;;;;4914827;29;20042;-82
2023/04/28 07:16:09;;;;;;;5.38;2.97;;;;;;;;;;4901170;29;20090;-84
2023/04/28 07:18:34;;;;;;;4.70;3.08;;;;;;;;;;4915561;29;20028;-84
2023/04/28 07:20:59;;;;;;;3.73;2.70;;;;;;;;;;4899288;29;20437;-83
2023/04/28 07:23:25;;;;;;;5.50;2.75;;;;;;;;;;4915648;29;20295;-83
2023/04/28 07:25:50;;;;;;;5.23;3.03;;;;;;;;;;4918622;29;20079;-83
2023/04/28 07:28:16;;;;;;;5.35;2.78;;;;;;;;;;4924248;29;20271;-82
2023/04/28 07:30:41;;;;;;;5.65;3.08;;;;;;;;;;4921825;29;20034;-82
2023/04/28 07:33:06;;;;;;;3.65;2.75;;;;;;;;;;4909858;29;20107;-82
2023/04/28 07:35:32;;;;;;;7.88;2.92;;;;;;;;;;4922039;29;20106;-84
2023/04/28 07:38:06;;;;;;;6.97;2.67;;;;;;;;;;5095925;27;20427;-83
2023/04/28 07:40:31;;;;;;;4.28;2.50;;;;;;;;;;5089421;28;20799;-79
2023/04/28 07:42:57;;;;;;;8.30;3.10;;;;;;;;;;5082702;28;20982;-79
2023/04/28 07:45:22;;;;;;;7.47;2.55;;;;;;;;;;5090849;28;20112;-83
2023/04/28 07:47:47;;;;;;;7.30;3.07;;;;;;;;;;5085487;28;20412;-83
2023/04/28 07:50:13;;;;;;;8.75;2.70;;;;;;;;;;5087869;28;20267;-83
2023/04/28 07:52:38;;;;;;;9.55;2.25;;;;;;;;;;5090180;28;20563;-82
2023/04/28 07:55:03;;;;;;;3.53;2.03;;;;;;;;;;5091061;28;20038;-85
2023/04/28 07:57:29;;;;;;;5.85;2.63;;;;;;;;;;5086943;28;20118;-85
2023/04/28 07:59:55;;;;;;;4.65;2.38;;;;;;;;;;5084096;28;20258;-84
2023/04/28 08:02:20;;;;;;;3.33;2.30;;;;;;;;;;5089056;28;20031;-86
2023/04/28 08:04:45;;;;;;;2.58;2.08;;;;;;;;;;5094273;28;20012;-83
2023/04/28 08:07:11;;;;;;;7.13;2.33;;;;;;;;;;5092472;28;20024;-84
2023/04/28 08:09:38;;;;;;;3.30;1.95;;;;;;;;;;5082752;28;20034;-85
2023/04/28 08:12:04;;;;;;;4.90;2.45;;;;;;;;;;5097353;28;20058;-84
2023/04/28 08:14:29;;;;;;;7.72;2.85;;;;;;;;;;5093581;28;20036;-86
2023/04/28 08:16:54;;;;;;;4.83;2.43;;;;;;;;;;5096799;28;20041;-84
2023/04/28 08:19:20;;;;;;;4.63;2.42;;;;;;;;;;5096140;28;20265;-84
2023/04/28 08:21:45;;;;;;;6.47;2.00;;;;;;;;;;5096438;28;20805;-83
2023/04/28 08:24:11;;;;;;;2.95;1.80;;;;;;;;;;5095308;28;20026;-83
2023/04/28 08:26:37;;;;;;;2.72;1.88;;;;;;;;;;5091637;28;20020;-85
2023/04/28 08:29:02;;;;;;;3.13;2.10;;;;;;;;;;5081392;28;20012;-87
2023/04/28 08:31:28;;;;;;;4.90;2.10;;;;;;;;;;5093075;28;20024;-86
2023/04/28 08:33:53;;;;;;;4.32;2.00;;;;;;;;;;5090958;28;20066;-85
2023/04/28 08:36:18;;;;;;;3.17;2.57;;;;;;;;;;5088294;28;20070;-86
2023/04/28 08:38:44;;;;;;;4.70;1.80;;;;;;;;;;5095682;28;20319;-85
2023/04/28 08:41:11;;;;;;;2.60;1.75;;;;;;;;;;5086723;28;20523;-83
2023/04/28 08:43:36;;;;;;;4.97;1.80;;;;;;;;;;5079949;28;20067;-85
2023/04/28 08:46:06;;;;;;;4.55;1.88;;;;;;;;;;5092250;28;20051;-83
2023/04/28 08:48:36;;;;;;;2.95;1.88;;;;;;;;;;5076275;28;20020;-84
2023/04/28 08:51:02;;;;;;;3.65;1.83;;;;;;;;;;5078413;28;20232;-82
2023/04/28 08:53:27;;;;;;;4.45;1.90;;;;;;;;;;5071356;28;20782;-85
2023/04/28 08:55:56;;;;;;;3.53;1.98;;;;;;;;;;5081371;28;20036;-81
2023/04/28 08:58:25;;;;;;;2.63;2.03;;;;;;;;;;5072230;28;20159;-83
2023/04/28 09:00:51;;;;;;;4.25;2.00;;;;;;;;;;5069405;28;20033;-86
2023/04/28 09:03:16;;;;;;;3.83;1.90;;;;;;;;;;5077147;28;20028;-83
2023/04/28 09:05:42;;;;;;;5.88;1.70;;;;;;;;;;5080607;28;20073;-84
2023/04/28 09:08:08;;;;;;;5.05;2.03;;;;;;;;;;5075709;28;20036;-86
2023/04/28 09:10:33;;;;;;;2.60;1.73;;;;;;;;;;5071655;28;20078;-80
2023/04/28 09:12:58;;;;;;;3.35;2.20;;;;;;;;;;5079059;28;20085;-85
2023/04/28 09:15:25;;;;;;;4.45;1.90;;;;;;;;;;5079579;28;20024;-84
2023/04/28 09:17:50;;;;;;;6.13;1.90;;;;;;;;;;5079207;28;20089;-82
2023/04/28 09:20:20;;;;;;;3.35;1.83;;;;;;;;;;5081129;28;20020;-77
2023/04/28 09:22:45;;;;;;;;;;;;;;;;;;5071925;28;20031;-85
2023/04/28 09:25:11;;;;;;;3.85;2.03;;;;;;;;;;5066717;28;19912;-83
2023/04/28 09:27:36;;;;;;;5.78;1.88;;;;;;;;;;5070154;28;20028;-85
2023/04/28 09:30:03;;;;;;;5.00;1.70;;;;;;;;;;5075010;28;20398;-84
2023/04/28 09:32:29;;;;;;;6.32;1.60;;;;;;;;;;5065214;28;20020;-84
2023/04/28 09:34:58;;;;;;;5.10;2.13;;;;;;;;;;5073374;28;20069;-87
2023/04/28 09:37:25;;;;;;;7.25;1.50;;;;;;;;;;5062570;28;20049;-83
2023/04/28 09:39:52;;;;;;;6.13;1.80;;;;;;;;;;5072149;28;20027;-83
2023/04/28 09:42:33;;;;;;;5.32;1.77;;;;;;;;;;5075524;28;20024;-86
2023/04/28 09:44:59;;;;;;;3.28;1.80;;;;;;;;;;5071369;28;20088;-85
2023/04/28 09:47:24;;;;;;;1.95;1.40;;;;;;;;;;5065451;28;20411;-85
2023/04/28 09:49:56;;;;;;;2.97;1.30;;;;;;;;;;5066516;28;20028;-84
2023/04/28 09:52:23;;;;;;;12.10;3.20;;;;;;;;;;5065520;28;20366;-83
2023/04/28 09:54:52;;;;;;;5.03;1.88;;;;;;;;;;5069407;28;20485;-85
2023/04/28 09:57:17;;;;;;;4.35;1.42;;;;;;;;;;5063973;28;20389;-84
2023/04/28 09:59:46;;;;;;;3.55;1.73;;;;;;;;;;5069373;28;20025;-84
2023/04/28 10:02:12;;;;;;;1.95;1.38;;;;;;;;;;5064465;28;20093;-84
2023/04/28 10:04:38;;;;;;;2.63;1.90;;;;;;;;;;5068783;28;20021;-84
2023/04/28 10:07:04;;;;;;;4.03;1.95;;;;;;;;;;5076662;28;20044;-84
2023/04/28 10:09:30;;;;;;;3.03;1.55;;;;;;;;;;5074867;28;20625;-86
2023/04/28 10:11:56;;;;;;;2.92;2.15;;;;;;;;;;5076356;28;20140;-84
2023/04/28 10:14:22;;;;;;;3.20;1.52;;;;;;;;;;5079886;28;20061;-86
2023/04/28 10:16:50;;;;;;;3.20;1.65;;;;;;;;;;5081103;28;20080;-81
2023/04/28 10:19:16;;;;;;;2.70;1.70;;;;;;;;;;5070999;28;20079;-86
2023/04/28 10:21:45;;;;;;;1.92;1.40;;;;;;;;;;5078999;28;20626;-84
2023/04/28 10:24:17;;;;;;;2.72;1.85;;;;;;;;;;5063562;28;20062;-81
2023/04/28 10:29:45;;;;;;;6.72;1.80;;;;;;;;;;5072408;28;20313;-83
2023/04/28 10:32:22;;;;;;;3.70;1.75;;;;;;;;;;5067388;28;20474;-85
2023/04/28 10:34:47;;;;;;;3.38;1.67;;;;;;;;;;5072541;28;20048;-86
2023/04/28 10:37:14;;;;;;;4.45;1.52;;;;;;;;;;5066033;28;20050;-85
2023/04/28 10:39:39;;;;;;;4.13;1.65;;;;;;;;;;5082938;28;20024;-83
2023/04/28 10:42:25;;;;;;;2.65;1.73;;;;;;;;;;5078384;28;20035;-83
2023/04/28 10:44:50;;;;;;;4.07;1.40;;;;;;;;;;5070078;28;20036;-85
2023/04/28 10:47:15;;;;;;;2.45;1.50;;;;;;;;;;5070847;28;20032;-85
2023/04/28 10:49:57;;;;;;;3.75;2.08;;;;;;;;;;5074801;28;20031;-84
2023/04/28 10:52:33;;;;;;;4.65;2.05;;;;;;;;;;5079084;28;20497;-81
2023/04/28 10:55:19;;;;;;;4.05;1.85;;;;;;;;;;5084982;28;20035;-86
2023/04/28 10:58:11;;;;;;;3.55;1.73;;;;;;;;;;5068414;28;20589;-85
2023/04/28 11:00:37;;;;;;;3.25;1.75;;;;;;;;;;5070060;28;20028;-85
2023/04/28 11:03:02;;;;;;;2.47;1.40;;;;;;;;;;5064954;28;20500;-86
2023/04/28 11:05:30;;;;;;;2.40;1.52;;;;;;;;;;5052682;28;20024;-85
2023/04/28 11:08:14;;;;;;;3.13;1.60;;;;;;;;;;5074384;28;20024;-85
2023/04/28 11:10:58;;;;;;;5.70;1.50;;;;;;;;;;5072972;28;20095;-82
2023/04/28 11:13:24;;;;;;;5.15;1.45;;;;;;;;;;5070137;28;20406;-85
2023/04/28 11:16:01;;;;;;;2.33;1.92;;;;;;;;;;5069689;28;20034;-84
2023/04/28 11:18:27;;;;;;;3.63;1.65;;;;;;;;;;5069365;28;20517;-86
2023/04/28 11:20:53;;;;;;;3.35;1.52;;;;;;;;;;5076840;28;20081;-84
2023/04/28 11:23:18;;;;;;;3.08;1.48;;;;;;;;;;5080561;28;20998;-84
2023/04/28 11:25:54;;;;;;;3.17;1.40;;;;;;;;;;5077789;28;20027;-83
2023/04/28 11:28:19;;;;;;;5.88;2.13;;;;;;;;;;5066112;28;20030;-83
2023/04/28 11:30:45;;;;;;;3.00;1.65;;;;;;;;;;5066953;28;20017;-86
2023/04/28 11:33:10;;;;;;;2.05;1.40;;;;;;;;;;5069074;28;20027;-85
2023/04/28 11:35:40;;;;;;;3.67;1.90;;;;;;;;;;5069165;28;20124;-86
2023/04/28 11:38:05;;;;;;;5.50;1.60;;;;;;;;;;5058521;28;20059;-86
2023/04/28 11:40:31;;;;;;;6.03;1.83;;;;;;;;;;5072305;28;20020;-89
2023/04/28 11:42:57;;;;;;;4.18;1.73;;;;;;;;;;5087308;28;20017;-83
2023/04/28 11:45:24;;;;;;;4.80;1.85;;;;;;;;;;5067982;28;20024;-87
2023/04/28 11:47:49;;;;;;;2.67;1.40;;;;;;;;;;5075683;28;20120;-85
2023/04/28 11:50:14;;;;;;;2.00;1.45;;;;;;;;;;5067563;28;20479;-86
2023/04/28 11:52:50;;;;;;;1.67;1.33;;;;;;;;;;5066634;28;20024;-86
2023/04/28 11:55:15;;;;;;;3.45;1.80;;;;;;;;;;5075905;28;20037;-86
2023/04/28 11:57:41;;;;;;;4.40;1.77;;;;;;;;;;5065603;28;20436;-84
2023/04/28 12:00:17;;;;;;;2.60;1.48;;;;;;;;;;5062689;28;20654;-82
2023/04/28 12:02:43;;;;;;;5.80;1.60;;;;;;;;;;5077270;28;20032;-85
2023/04/28 12:05:09;;;;;;;3.60;1.70;;;;;;;;;;5063364;28;20370;-86
2023/04/28 12:07:42;;;;;;;3.67;1.60;;;;;;;;;;5054466;28;20284;-85
2023/04/28 12:10:17;;;;;;;3.67;1.42;;;;;;;;;;5063603;28;20051;-81
2023/04/28 12:12:43;;;;;;;5.68;1.90;;;;;;;;;;5051859;28;20047;-85
2023/04/28 12:15:08;;;;;;;4.10;1.40;;;;;;;;;;5067696;28;20455;-85
2023/04/28 12:17:34;;;;;;;4.35;1.73;;;;;;;;;;5069563;28;20036;-85
2023/04/28 12:20:00;;;;;;;2.92;1.77;;;;;;;;;;5071006;28;21379;-85
2023/04/28 12:22:26;;;;;;;2.20;1.67;;;;;;;;;;5059272;28;20484;-84
2023/04/28 12:25:05;;;;;;;1.92;1.35;;;;;;;;;;5080753;28;20012;-85
2023/04/28 12:27:31;;;;;;;;;;;;;;;;;;5073353;28;20031;-83
2023/04/28 12:29:57;;;;;;;6.28;1.50;;;;;;;;;;5061774;28;19912;-81
2023/04/28 12:32:38;;;;;;;3.13;1.60;;;;;;;;;;5063325;28;20013;-84
2023/04/28 12:35:04;;;;;;;4.93;1.70;;;;;;;;;;5062088;28;20130;-86
2023/04/28 12:37:30;;;;;;;2.15;1.50;;;;;;;;;;5076535;28;20040;-84
2023/04/28 12:39:55;;;;;;;3.15;1.50;;;;;;;;;;5072040;28;20058;-81
2023/04/28 12:42:22;;;;;;;4.10;1.63;;;;;;;;;;5069138;28;20039;-85
2023/04/28 12:44:48;;;;;;;4.20;1.40;;;;;;;;;;5069677;28;20261;-84
2023/04/28 12:47:14;;;;;;;2.90;1.40;;;;;;;;;;5083224;28;20117;-83
2023/04/28 12:49:40;;;;;;;2.28;1.45;;;;;;;;;;5083004;28;20024;-83
2023/04/28 12:52:06;;;;;;;2.83;1.30;;;;;;;;;;5082472;28;20116;-80
2023/04/28 12:54:31;;;;;;;5.15;2.47;;;;;;;;;;5082200;28;20023;-87
2023/04/28 12:56:57;;;;;;;3.10;1.63;;;;;;;;;;5074078;28;20503;-80
2023/04/28 12:59:22;;;;;;;6.18;1.40;;;;;;;;;;5083782;28;20024;-89
2023/04/28 13:01:49;;;;;;;3.25;1.60;;;;;;;;;;5074009;28;20028;-84
2023/04/28 13:04:14;;;;;;;5.55;1.67;;;;;;;;;;5075245;28;20032;-84
2023/04/28 13:06:42;;;;;;;2.80;1.30;;;;;;;;;;5066818;28;20276;-86
2023/04/28 13:09:08;;;;;;;2.75;1.60;;;;;;;;;;5076814;28;20374;-86
2023/04/28 13:11:34;;;;;;;3.47;1.63;;;;;;;;;;5080817;28;20023;-82
2023/04/28 13:13:59;;;;;;;1.88;1.30;;;;;;;;;;5070431;28;20501;-84
2023/04/28 13:16:27;;;;;;;6.25;1.63;;;;;;;;;;5075518;28;20045;-84
2023/04/28 13:18:53;;;;;;;2.58;1.17;;;;;;;;;;5065407;28;20393;-84
2023/04/28 13:21:18;;;;;;;2.80;1.40;;;;;;;;;;5061448;28;20024;-87
2023/04/28 13:23:43;;;;;;;3.03;1.52;;;;;;;;;;5079661;28;20016;-87
2023/04/28 13:26:08;;;;;;;2.53;1.27;;;;;;;;;;5070254;28;20868;-83
2023/04/28 13:28:35;;;;;;;4.67;1.77;;;;;;;;;;5076856;28;20055;-84
2023/04/28 13:31:00;;;;;;;5.10;1.40;;;;;;;;;;5064486;28;20266;-84
2023/04/28 13:33:30;;;;;;;4.63;1.48;;;;;;;;;;5069945;28;20256;-83
2023/04/28 13:35:55;;;;;;;;;;;;;;;;;;5075898;28;20012;-83
2023/04/28 13:38:20;;;;;;;4.05;1.80;;;;;;;;;;5081669;28;19911;-86
2023/04/28 13:40:46;;;;;;;4.50;2.10;;;;;;;;;;5076807;28;20020;-84
2023/04/28 13:43:12;;;;;;;6.90;2.00;;;;;;;;;;5073539;28;20052;-85
2023/04/28 13:45:37;;;;;;;8.50;1.60;;;;;;;;;;5080049;28;20111;-86
2023/04/28 13:48:02;;;;;;;2.90;1.40;;;;;;;;;;5082056;28;20023;-83
2023/04/28 13:50:28;;;;;;;2.35;1.95;;;;;;;;;;5074370;28;20258;-80
2023/04/28 13:52:53;;;;;;;5.22;1.55;;;;;;;;;;5067774;28;20756;-85
2023/04/28 13:55:26;;;;;;;3.28;1.40;;;;;;;;;;5079034;28;20026;-84
2023/04/28 13:57:51;;;;;;;3.35;1.50;;;;;;;;;;5077770;28;20047;-84
2023/04/28 14:00:18;;;;;;;3.85;1.70;;;;;;;;;;5069228;28;20024;-84
2023/04/28 14:02:43;;;;;;;3.22;1.40;;;;;;;;;;5075634;28;20808;-85
2023/04/28 14:05:09;;;;;;;3.45;1.63;;;;;;;;;;5076733;28;20013;-85
2023/04/28 14:07:34;;;;;;;3.80;1.42;;;;;;;;;;5081059;28;20398;-86
2023/04/28 14:09:59;;;;;;;2.95;1.33;;;;;;;;;;5080029;28;20030;-85
2023/04/28 14:12:25;;;;;;;2.70;1.30;;;;;;;;;;5081388;28;20008;-83
2023/04/28 14:14:50;;;;;;;3.55;1.45;;;;;;;;;;5080215;28;20031;-84
2023/04/28 14:17:16;;;;;;;3.33;1.57;;;;;;;;;;5082004;28;20075;-87
2023/04/28 14:19:43;;;;;;;2.45;1.40;;;;;;;;;;5079784;28;20250;-85
2023/04/28 14:22:08;;;;;;;5.18;1.20;;;;;;;;;;5081495;28;20095;-81
2023/04/28 14:24:33;;;;;;;8.70;1.80;;;;;;;;;;5078735;28;20114;-85
2023/04/28 14:26:58;;;;;;;2.85;1.70;;;;;;;;;;5081832;28;20034;-86
2023/04/28 14:29:24;;;;;;;2.40;1.40;;;;;;;;;;5079867;28;20110;-86
2023/04/28 14:31:49;;;;;;;4.00;1.60;;;;;;;;;;5077609;28;20063;-87
2023/04/28 14:34:14;;;;;;;3.42;1.60;;;;;;;;;;5079958;28;20043;-85
2023/04/28 14:36:41;;;;;;;4.77;1.50;;;;;;;;;;5078695;28;20434;-85
2023/04/28 14:39:06;;;;;;;6.30;1.45;;;;;;;;;;5079966;28;20262;-85
2023/04/28 14:41:31;;;;;;;1.90;1.45;;;;;;;;;;5075342;28;20378;-83
2023/04/28 14:43:57;;;;;;;2.67;1.60;;;;;;;;;;5073413;28;20113;-83
2023/04/28 14:46:22;;;;;;;1.98;1.27;;;;;;;;;;5069914;28;20552;-83
2023/04/28 14:48:48;;;;;;;9.38;1.45;;;;;;;;;;5080385;28;20008;-80
2023/04/28 14:51:14;;;;;;;9.15;2.40;;;;;;;;;;5069359;28;20127;-84
2023/04/28 14:53:39;;;;;;;6.50;1.60;;;;;;;;;;5069989;28;20016;-86